sensor_id;sensor_type;location;lat;lon;timestamp;P1;durP1;ratioP1;P2;durP2;ratioP2
62711;SDS011;48772;55.586;37.730;2023-03-21T00:00:56;3.83;;;2.78;;
62711;SDS011;48772;55.586;37.730;2023-03-21T00:03:24;6.82;;;3.75;;
62711;SDS011;48772;55.586;37.730;2023-03-21T00:05:50;2.90;;;2.20;;
62711;SDS011;48772;55.586;37.730;2023-03-21T00:08:18;3.47;;;2.50;;
62711;SDS011;48772;55.586;37.730;2023-03-21T00:10:45;7.15;;;3.30;;
62711;SDS011;48772;55.586;37.730;2023-03-21T00:13:11;6.10;;;2.65;;
62711;SDS011;48772;55.586;37.730;2023-03-21T00:15:39;5.07;;;2.47;;
62711;SDS011;48772;55.586;37.730;2023-03-21T00:18:15;5.03;;;3.03;;
62711;SDS011;48772;55.586;37.730;2023-03-21T00:20:41;3.78;;;2.92;;
62711;SDS011;48772;55.586;37.730;2023-03-21T00:23:10;3.80;;;2.40;;
62711;SDS011;48772;55.586;37.730;2023-03-21T00:25:36;4.10;;;2.58;;
62711;SDS011;48772;55.586;37.730;2023-03-21T00:28:02;5.18;;;2.60;;
62711;SDS011;48772;55.586;37.730;2023-03-21T00:30:28;6.05;;;2.72;;
62711;SDS011;48772;55.586;37.730;2023-03-21T00:32:54;5.85;;;3.33;;
62711;SDS011;48772;55.586;37.730;2023-03-21T00:35:20;4.43;;;3.55;;
62711;SDS011;48772;55.586;37.730;2023-03-21T00:37:45;6.28;;;2.90;;
62711;SDS011;48772;55.586;37.730;2023-03-21T00:40:11;6.07;;;3.42;;
62711;SDS011;48772;55.586;37.730;2023-03-21T00:42:39;5.60;;;3.30;;
62711;SDS011;48772;55.586;37.730;2023-03-21T00:45:05;4.68;;;3.17;;
62711;SDS011;48772;55.586;37.730;2023-03-21T00:47:34;3.28;;;2.30;;
62711;SDS011;48772;55.586;37.730;2023-03-21T00:50:02;7.72;;;3.33;;
62711;SDS011;48772;55.586;37.730;2023-03-21T00:52:29;8.80;;;3.78;;
62711;SDS011;48772;55.586;37.730;2023-03-21T00:54:56;7.22;;;3.58;;
62711;SDS011;48772;55.586;37.730;2023-03-21T00:57:22;5.45;;;3.10;;
62711;SDS011;48772;55.586;37.730;2023-03-21T00:59:47;6.35;;;3.33;;
62711;SDS011;48772;55.586;37.730;2023-03-21T01:02:13;6.18;;;3.20;;
62711;SDS011;48772;55.586;37.730;2023-03-21T01:04:47;4.90;;;2.95;;
62711;SDS011;48772;55.586;37.730;2023-03-21T01:07:14;7.72;;;2.65;;
62711;SDS011;48772;55.586;37.730;2023-03-21T01:09:40;3.00;;;2.10;;
62711;SDS011;48772;55.586;37.730;2023-03-21T01:12:05;5.07;;;3.00;;
62711;SDS011;48772;55.586;37.730;2023-03-21T01:14:31;5.93;;;3.00;;
62711;SDS011;48772;55.586;37.730;2023-03-21T01:16:57;5.43;;;3.85;;
62711;SDS011;48772;55.586;37.730;2023-03-21T01:19:23;3.40;;;2.13;;
62711;SDS011;48772;55.586;37.730;2023-03-21T01:21:51;4.43;;;2.53;;
62711;SDS011;48772;55.586;37.730;2023-03-21T01:24:17;6.00;;;2.80;;
62711;SDS011;48772;55.586;37.730;2023-03-21T01:26:43;4.07;;;2.70;;
62711;SDS011;48772;55.586;37.730;2023-03-21T01:29:09;5.20;;;3.33;;
62711;SDS011;48772;55.586;37.730;2023-03-21T01:31:35;5.15;;;2.63;;
62711;SDS011;48772;55.586;37.730;2023-03-21T01:34:01;5.75;;;2.90;;
62711;SDS011;48772;55.586;37.730;2023-03-21T01:36:27;7.32;;;3.05;;
62711;SDS011;48772;55.586;37.730;2023-03-21T01:39:01;4.50;;;2.92;;
62711;SDS011;48772;55.586;37.730;2023-03-21T01:41:29;6.30;;;3.08;;
62711;SDS011;48772;55.586;37.730;2023-03-21T01:43:57;5.07;;;3.05;;
62711;SDS011;48772;55.586;37.730;2023-03-21T01:51:41;7.18;;;3.08;;
62711;SDS011;48772;55.586;37.730;2023-03-21T01:54:16;6.63;;;3.58;;
62711;SDS011;48772;55.586;37.730;2023-03-21T01:56:53;6.85;;;3.65;;
62711;SDS011;48772;55.586;37.730;2023-03-21T01:59:27;8.65;;;3.65;;
62711;SDS011;48772;55.586;37.730;2023-03-21T02:02:10;7.45;;;3.30;;
62711;SDS011;48772;55.586;37.730;2023-03-21T02:04:52;5.43;;;3.35;;
62711;SDS011;48772;55.586;37.730;2023-03-21T02:07:32;7.15;;;3.92;;
62711;SDS011;48772;55.586;37.730;2023-03-21T02:10:07;6.03;;;3.65;;
62711;SDS011;48772;55.586;37.730;2023-03-21T02:12:37;4.75;;;3.58;;
62711;SDS011;48772;55.586;37.730;2023-03-21T02:15:05;6.28;;;3.60;;
62711;SDS011;48772;55.586;37.730;2023-03-21T02:17:57;7.07;;;3.40;;
62711;SDS011;48772;55.586;37.730;2023-03-21T02:29:36;6.65;;;2.60;;
62711;SDS011;48772;55.586;37.730;2023-03-21T02:35:21;9.55;;;3.60;;
62711;SDS011;48772;55.586;37.730;2023-03-21T02:38:09;7.85;;;4.43;;
62711;SDS011;48772;55.586;37.730;2023-03-21T02:40:48;10.18;;;4.68;;
62711;SDS011;48772;55.586;37.730;2023-03-21T02:43:27;6.20;;;3.03;;
62711;SDS011;48772;55.586;37.730;2023-03-21T02:46:04;6.97;;;3.95;;
62711;SDS011;48772;55.586;37.730;2023-03-21T02:48:41;7.68;;;3.83;;
62711;SDS011;48772;55.586;37.730;2023-03-21T02:51:14;12.35;;;3.42;;
62711;SDS011;48772;55.586;37.730;2023-03-21T02:53:44;10.32;;;3.75;;
62711;SDS011;48772;55.586;37.730;2023-03-21T02:56:14;7.22;;;3.67;;
62711;SDS011;48772;55.586;37.730;2023-03-21T02:58:45;7.05;;;4.13;;
62711;SDS011;48772;55.586;37.730;2023-03-21T03:01:12;8.70;;;4.07;;
62711;SDS011;48772;55.586;37.730;2023-03-21T03:03:45;11.48;;;4.70;;
62711;SDS011;48772;55.586;37.730;2023-03-21T03:06:18;7.47;;;4.20;;
62711;SDS011;48772;55.586;37.730;2023-03-21T03:09:06;7.43;;;4.45;;
62711;SDS011;48772;55.586;37.730;2023-03-21T03:11:49;13.40;;;4.28;;
62711;SDS011;48772;55.586;37.730;2023-03-21T03:14:39;9.43;;;4.10;;
62711;SDS011;48772;55.586;37.730;2023-03-21T03:22:58;19.13;;;5.55;;
62711;SDS011;48772;55.586;37.730;2023-03-21T03:25:45;11.25;;;3.75;;
62711;SDS011;48772;55.586;37.730;2023-03-21T03:28:21;11.55;;;4.28;;
62711;SDS011;48772;55.586;37.730;2023-03-21T03:30:51;11.00;;;4.70;;
62711;SDS011;48772;55.586;37.730;2023-03-21T03:33:22;8.13;;;3.60;;
62711;SDS011;48772;55.586;37.730;2023-03-21T03:35:50;8.05;;;4.65;;
62711;SDS011;48772;55.586;37.730;2023-03-21T03:38:17;7.68;;;4.00;;
62711;SDS011;48772;55.586;37.730;2023-03-21T03:40:49;9.45;;;4.30;;
62711;SDS011;48772;55.586;37.730;2023-03-21T03:43:50;7.78;;;4.53;;
62711;SDS011;48772;55.586;37.730;2023-03-21T03:46:28;9.93;;;4.80;;
62711;SDS011;48772;55.586;37.730;2023-03-21T03:49:00;11.10;;;5.03;;
62711;SDS011;48772;55.586;37.730;2023-03-21T03:51:45;11.65;;;4.60;;
62711;SDS011;48772;55.586;37.730;2023-03-21T03:54:46;12.13;;;5.10;;
62711;SDS011;48772;55.586;37.730;2023-03-21T03:57:14;8.45;;;5.07;;
62711;SDS011;48772;55.586;37.730;2023-03-21T03:59:41;11.20;;;5.43;;
62711;SDS011;48772;55.586;37.730;2023-03-21T04:02:20;13.55;;;5.80;;
62711;SDS011;48772;55.586;37.730;2023-03-21T04:04:47;9.18;;;5.63;;
62711;SDS011;48772;55.586;37.730;2023-03-21T04:07:18;10.57;;;5.35;;
62711;SDS011;48772;55.586;37.730;2023-03-21T04:09:46;16.38;;;6.28;;
62711;SDS011;48772;55.586;37.730;2023-03-21T04:12:15;12.27;;;5.32;;
62711;SDS011;48772;55.586;37.730;2023-03-21T04:14:54;15.25;;;4.78;;
62711;SDS011;48772;55.586;37.730;2023-03-21T04:17:20;13.05;;;5.28;;
62711;SDS011;48772;55.586;37.730;2023-03-21T04:19:46;10.73;;;5.57;;
62711;SDS011;48772;55.586;37.730;2023-03-21T04:22:16;13.00;;;5.65;;
62711;SDS011;48772;55.586;37.730;2023-03-21T04:24:43;13.77;;;5.53;;
62711;SDS011;48772;55.586;37.730;2023-03-21T04:27:09;13.93;;;6.00;;
62711;SDS011;48772;55.586;37.730;2023-03-21T04:29:39;10.35;;;5.43;;
62711;SDS011;48772;55.586;37.730;2023-03-21T04:32:26;10.82;;;5.32;;
62711;SDS011;48772;55.586;37.730;2023-03-21T04:35:07;11.10;;;5.28;;
62711;SDS011;48772;55.586;37.730;2023-03-21T04:37:34;8.38;;;4.47;;
62711;SDS011;48772;55.586;37.730;2023-03-21T04:40:02;9.50;;;5.22;;
62711;SDS011;48772;55.586;37.730;2023-03-21T04:42:32;9.32;;;4.68;;
62711;SDS011;48772;55.586;37.730;2023-03-21T04:44:59;11.77;;;4.82;;
62711;SDS011;48772;55.586;37.730;2023-03-21T04:47:25;13.82;;;6.28;;
62711;SDS011;48772;55.586;37.730;2023-03-21T04:49:53;13.20;;;5.10;;
62711;SDS011;48772;55.586;37.730;2023-03-21T04:52:19;10.05;;;5.20;;
62711;SDS011;48772;55.586;37.730;2023-03-21T04:54:45;13.95;;;5.47;;
62711;SDS011;48772;55.586;37.730;2023-03-21T04:57:11;13.20;;;5.13;;
62711;SDS011;48772;55.586;37.730;2023-03-21T04:59:37;11.05;;;5.63;;
62711;SDS011;48772;55.586;37.730;2023-03-21T05:02:03;14.73;;;6.22;;
62711;SDS011;48772;55.586;37.730;2023-03-21T05:04:29;13.88;;;5.95;;
62711;SDS011;48772;55.586;37.730;2023-03-21T05:06:56;14.23;;;5.88;;
62711;SDS011;48772;55.586;37.730;2023-03-21T05:09:23;9.40;;;5.47;;
62711;SDS011;48772;55.586;37.730;2023-03-21T05:11:50;11.00;;;5.90;;
62711;SDS011;48772;55.586;37.730;2023-03-21T05:14:17;7.38;;;4.35;;
62711;SDS011;48772;55.586;37.730;2023-03-21T05:16:45;14.48;;;5.15;;
62711;SDS011;48772;55.586;37.730;2023-03-21T05:21:48;9.80;;;3.88;;
62711;SDS011;48772;55.586;37.730;2023-03-21T05:24:24;11.82;;;4.80;;
62711;SDS011;48772;55.586;37.730;2023-03-21T05:26:51;11.15;;;5.55;;
62711;SDS011;48772;55.586;37.730;2023-03-21T05:29:22;11.10;;;5.97;;
62711;SDS011;48772;55.586;37.730;2023-03-21T05:31:56;19.65;;;6.30;;
62711;SDS011;48772;55.586;37.730;2023-03-21T05:34:23;14.40;;;5.75;;
62711;SDS011;48772;55.586;37.730;2023-03-21T05:36:51;14.23;;;5.20;;
62711;SDS011;48772;55.586;37.730;2023-03-21T05:39:17;9.10;;;5.68;;
62711;SDS011;48772;55.586;37.730;2023-03-21T05:41:57;10.95;;;5.97;;
62711;SDS011;48772;55.586;37.730;2023-03-21T05:44:23;7.47;;;5.03;;
62711;SDS011;48772;55.586;37.730;2023-03-21T05:46:49;15.85;;;5.82;;
62711;SDS011;48772;55.586;37.730;2023-03-21T05:49:16;18.42;;;5.32;;
62711;SDS011;48772;55.586;37.730;2023-03-21T05:51:42;15.23;;;4.97;;
62711;SDS011;48772;55.586;37.730;2023-03-21T05:54:11;11.60;;;5.35;;
62711;SDS011;48772;55.586;37.730;2023-03-21T05:56:42;9.25;;;5.35;;
62711;SDS011;48772;55.586;37.730;2023-03-21T05:59:11;14.70;;;5.60;;
62711;SDS011;48772;55.586;37.730;2023-03-21T06:01:41;13.45;;;5.25;;
62711;SDS011;48772;55.586;37.730;2023-03-21T06:04:12;13.95;;;5.70;;
62711;SDS011;48772;55.586;37.730;2023-03-21T06:06:38;11.48;;;5.88;;
62711;SDS011;48772;55.586;37.730;2023-03-21T06:09:04;10.18;;;4.95;;
62711;SDS011;48772;55.586;37.730;2023-03-21T06:11:32;15.07;;;5.38;;
62711;SDS011;48772;55.586;37.730;2023-03-21T06:14:21;11.45;;;5.93;;
62711;SDS011;48772;55.586;37.730;2023-03-21T06:17:14;9.18;;;5.30;;
62711;SDS011;48772;55.586;37.730;2023-03-21T06:19:47;14.18;;;6.30;;
62711;SDS011;48772;55.586;37.730;2023-03-21T06:22:22;10.50;;;5.50;;
62711;SDS011;48772;55.586;37.730;2023-03-21T06:24:48;11.45;;;5.43;;
62711;SDS011;48772;55.586;37.730;2023-03-21T06:27:16;13.48;;;6.15;;
62711;SDS011;48772;55.586;37.730;2023-03-21T06:29:51;12.55;;;5.80;;
62711;SDS011;48772;55.586;37.730;2023-03-21T06:32:17;13.85;;;5.53;;
62711;SDS011;48772;55.586;37.730;2023-03-21T06:34:45;10.07;;;5.80;;
62711;SDS011;48772;55.586;37.730;2023-03-21T06:37:13;15.10;;;6.13;;
62711;SDS011;48772;55.586;37.730;2023-03-21T06:39:40;20.35;;;6.90;;
62711;SDS011;48772;55.586;37.730;2023-03-21T06:42:07;16.35;;;6.80;;
62711;SDS011;48772;55.586;37.730;2023-03-21T06:44:32;15.88;;;6.43;;
62711;SDS011;48772;55.586;37.730;2023-03-21T06:47:03;13.18;;;6.93;;
62711;SDS011;48772;55.586;37.730;2023-03-21T06:49:28;14.13;;;7.00;;
62711;SDS011;48772;55.586;37.730;2023-03-21T06:51:59;15.02;;;6.82;;
62711;SDS011;48772;55.586;37.730;2023-03-21T06:54:25;11.68;;;7.22;;
62711;SDS011;48772;55.586;37.730;2023-03-21T06:56:57;15.32;;;6.40;;
62711;SDS011;48772;55.586;37.730;2023-03-21T06:59:29;13.57;;;7.22;;
62711;SDS011;48772;55.586;37.730;2023-03-21T07:02:05;13.85;;;7.63;;
62711;SDS011;48772;55.586;37.730;2023-03-21T07:04:36;14.30;;;7.28;;
62711;SDS011;48772;55.586;37.730;2023-03-21T07:07:04;13.25;;;7.90;;
62711;SDS011;48772;55.586;37.730;2023-03-21T07:09:30;18.70;;;8.60;;
62711;SDS011;48772;55.586;37.730;2023-03-21T07:12:01;11.20;;;6.50;;
62711;SDS011;48772;55.586;37.730;2023-03-21T07:14:39;18.90;;;6.90;;
62711;SDS011;48772;55.586;37.730;2023-03-21T07:17:04;11.57;;;7.00;;
62711;SDS011;48772;55.586;37.730;2023-03-21T07:19:30;14.63;;;7.20;;
62711;SDS011;48772;55.586;37.730;2023-03-21T07:21:57;16.02;;;6.88;;
62711;SDS011;48772;55.586;37.730;2023-03-21T07:24:26;12.93;;;6.45;;
62711;SDS011;48772;55.586;37.730;2023-03-21T07:26:52;13.73;;;6.32;;
62711;SDS011;48772;55.586;37.730;2023-03-21T07:29:18;12.60;;;6.53;;
62711;SDS011;48772;55.586;37.730;2023-03-21T07:31:47;15.98;;;7.50;;
62711;SDS011;48772;55.586;37.730;2023-03-21T07:34:14;27.02;;;6.70;;
62711;SDS011;48772;55.586;37.730;2023-03-21T07:36:41;15.00;;;7.20;;
62711;SDS011;48772;55.586;37.730;2023-03-21T07:39:08;15.82;;;7.15;;
62711;SDS011;48772;55.586;37.730;2023-03-21T07:41:34;16.15;;;5.95;;
62711;SDS011;48772;55.586;37.730;2023-03-21T07:44:11;11.63;;;5.93;;
62711;SDS011;48772;55.586;37.730;2023-03-21T07:46:37;10.45;;;6.05;;
62711;SDS011;48772;55.586;37.730;2023-03-21T07:49:03;13.13;;;6.03;;
62711;SDS011;48772;55.586;37.730;2023-03-21T07:51:30;13.75;;;7.10;;
62711;SDS011;48772;55.586;37.730;2023-03-21T07:53:56;11.20;;;6.72;;
62711;SDS011;48772;55.586;37.730;2023-03-21T07:56:22;13.32;;;6.63;;
62711;SDS011;48772;55.586;37.730;2023-03-21T07:58:47;14.07;;;6.00;;
62711;SDS011;48772;55.586;37.730;2023-03-21T08:01:13;14.57;;;6.43;;
62711;SDS011;48772;55.586;37.730;2023-03-21T08:03:39;18.23;;;6.50;;
62711;SDS011;48772;55.586;37.730;2023-03-21T08:06:04;16.75;;;6.43;;
62711;SDS011;48772;55.586;37.730;2023-03-21T08:08:31;14.43;;;6.00;;
62711;SDS011;48772;55.586;37.730;2023-03-21T08:10:57;13.25;;;6.28;;
62711;SDS011;48772;55.586;37.730;2023-03-21T08:13:23;13.18;;;7.03;;
62711;SDS011;48772;55.586;37.730;2023-03-21T08:15:50;13.32;;;6.55;;
62711;SDS011;48772;55.586;37.730;2023-03-21T08:18:15;14.18;;;6.97;;
62711;SDS011;48772;55.586;37.730;2023-03-21T08:20:41;13.57;;;6.88;;
62711;SDS011;48772;55.586;37.730;2023-03-21T08:23:08;15.13;;;6.32;;
62711;SDS011;48772;55.586;37.730;2023-03-21T08:25:34;10.63;;;6.63;;
62711;SDS011;48772;55.586;37.730;2023-03-21T08:28:00;12.05;;;6.63;;
62711;SDS011;48772;55.586;37.730;2023-03-21T08:30:27;10.98;;;5.65;;
62711;SDS011;48772;55.586;37.730;2023-03-21T08:32:58;8.32;;;5.60;;
62711;SDS011;48772;55.586;37.730;2023-03-21T08:35:25;9.73;;;4.60;;
62711;SDS011;48772;55.586;37.730;2023-03-21T08:37:51;7.88;;;4.68;;
62711;SDS011;48772;55.586;37.730;2023-03-21T08:40:17;9.75;;;5.20;;
62711;SDS011;48772;55.586;37.730;2023-03-21T08:42:44;14.18;;;5.07;;
62711;SDS011;48772;55.586;37.730;2023-03-21T08:45:11;11.57;;;6.10;;
62711;SDS011;48772;55.586;37.730;2023-03-21T08:47:39;11.25;;;5.63;;
62711;SDS011;48772;55.586;37.730;2023-03-21T08:50:05;10.05;;;5.53;;
62711;SDS011;48772;55.586;37.730;2023-03-21T08:52:32;13.93;;;6.07;;
62711;SDS011;48772;55.586;37.730;2023-03-21T08:54:58;13.98;;;5.53;;
62711;SDS011;48772;55.586;37.730;2023-03-21T08:57:24;6.20;;;4.20;;
62711;SDS011;48772;55.586;37.730;2023-03-21T08:59:50;7.75;;;5.18;;
62711;SDS011;48772;55.586;37.730;2023-03-21T09:02:16;8.27;;;4.95;;
62711;SDS011;48772;55.586;37.730;2023-03-21T09:04:42;13.05;;;7.70;;
62711;SDS011;48772;55.586;37.730;2023-03-21T09:07:09;10.85;;;5.00;;
62711;SDS011;48772;55.586;37.730;2023-03-21T09:09:37;8.32;;;4.63;;
62711;SDS011;48772;55.586;37.730;2023-03-21T09:12:03;5.47;;;3.33;;
62711;SDS011;48772;55.586;37.730;2023-03-21T09:14:29;9.05;;;4.65;;
62711;SDS011;48772;55.586;37.730;2023-03-21T09:16:55;7.65;;;4.43;;
62711;SDS011;48772;55.586;37.730;2023-03-21T09:19:21;10.18;;;4.85;;
62711;SDS011;48772;55.586;37.730;2023-03-21T09:21:48;7.10;;;4.97;;
62711;SDS011;48772;55.586;37.730;2023-03-21T09:24:14;11.35;;;5.25;;
62711;SDS011;48772;55.586;37.730;2023-03-21T09:26:42;8.73;;;4.82;;
62711;SDS011;48772;55.586;37.730;2023-03-21T09:29:09;5.80;;;4.43;;
62711;SDS011;48772;55.586;37.730;2023-03-21T09:31:35;9.35;;;5.53;;
62711;SDS011;48772;55.586;37.730;2023-03-21T09:34:01;6.90;;;3.33;;
62711;SDS011;48772;55.586;37.730;2023-03-21T09:36:28;7.85;;;4.00;;
62711;SDS011;48772;55.586;37.730;2023-03-21T09:38:54;8.45;;;4.28;;
62711;SDS011;48772;55.586;37.730;2023-03-21T09:41:44;5.18;;;3.80;;
62711;SDS011;48772;55.586;37.730;2023-03-21T09:44:26;4.38;;;2.83;;
62711;SDS011;48772;55.586;37.730;2023-03-21T09:47:05;4.45;;;3.17;;
62711;SDS011;48772;55.586;37.730;2023-03-21T09:49:54;5.18;;;3.80;;
62711;SDS011;48772;55.586;37.730;2023-03-21T09:52:26;6.25;;;3.78;;
62711;SDS011;48772;55.586;37.730;2023-03-21T09:54:53;4.20;;;3.08;;
62711;SDS011;48772;55.586;37.730;2023-03-21T09:57:30;6.72;;;3.47;;
62711;SDS011;48772;55.586;37.730;2023-03-21T10:00:05;5.82;;;4.22;;
62711;SDS011;48772;55.586;37.730;2023-03-21T10:02:44;7.90;;;4.10;;
62711;SDS011;48772;55.586;37.730;2023-03-21T10:05:19;5.60;;;3.20;;
62711;SDS011;48772;55.586;37.730;2023-03-21T10:07:49;8.45;;;4.30;;
62711;SDS011;48772;55.586;37.730;2023-03-21T10:10:36;7.82;;;5.57;;
62711;SDS011;48772;55.586;37.730;2023-03-21T10:13:22;5.35;;;3.45;;
62711;SDS011;48772;55.586;37.730;2023-03-21T10:15:55;4.55;;;3.45;;
62711;SDS011;48772;55.586;37.730;2023-03-21T10:18:24;6.75;;;4.47;;
62711;SDS011;48772;55.586;37.730;2023-03-21T10:20:53;7.13;;;4.22;;
62711;SDS011;48772;55.586;37.730;2023-03-21T10:23:21;8.40;;;3.97;;
62711;SDS011;48772;55.586;37.730;2023-03-21T10:25:52;8.52;;;4.20;;
62711;SDS011;48772;55.586;37.730;2023-03-21T10:28:26;6.38;;;3.88;;
62711;SDS011;48772;55.586;37.730;2023-03-21T10:30:57;5.32;;;3.78;;
62711;SDS011;48772;55.586;37.730;2023-03-21T10:33:36;4.38;;;2.90;;
62711;SDS011;48772;55.586;37.730;2023-03-21T10:36:16;4.95;;;3.40;;
62711;SDS011;48772;55.586;37.730;2023-03-21T10:38:54;5.63;;;3.67;;
62711;SDS011;48772;55.586;37.730;2023-03-21T10:41:24;5.82;;;3.88;;
62711;SDS011;48772;55.586;37.730;2023-03-21T10:44:06;6.07;;;3.72;;
62711;SDS011;48772;55.586;37.730;2023-03-21T10:46:32;9.50;;;4.80;;
62711;SDS011;48772;55.586;37.730;2023-03-21T10:49:00;6.15;;;3.95;;
62711;SDS011;48772;55.586;37.730;2023-03-21T10:51:27;13.80;;;4.35;;
62711;SDS011;48772;55.586;37.730;2023-03-21T10:54:07;6.38;;;4.35;;
62711;SDS011;48772;55.586;37.730;2023-03-21T10:56:37;9.98;;;4.70;;
62711;SDS011;48772;55.586;37.730;2023-03-21T10:59:07;8.07;;;4.55;;
62711;SDS011;48772;55.586;37.730;2023-03-21T11:01:42;8.32;;;5.10;;
62711;SDS011;48772;55.586;37.730;2023-03-21T11:04:13;8.75;;;3.67;;
62711;SDS011;48772;55.586;37.730;2023-03-21T11:06:43;9.13;;;4.50;;
62711;SDS011;48772;55.586;37.730;2023-03-21T11:09:17;5.97;;;4.33;;
62711;SDS011;48772;55.586;37.730;2023-03-21T11:12:09;8.88;;;4.90;;
62711;SDS011;48772;55.586;37.730;2023-03-21T11:14:43;10.90;;;5.90;;
62711;SDS011;48772;55.586;37.730;2023-03-21T11:19:59;8.30;;;3.80;;
62711;SDS011;48772;55.586;37.730;2023-03-21T11:22:29;8.70;;;5.30;;
62711;SDS011;48772;55.586;37.730;2023-03-21T11:25:04;5.18;;;4.03;;
62711;SDS011;48772;55.586;37.730;2023-03-21T11:27:33;10.85;;;4.63;;
62711;SDS011;48772;55.586;37.730;2023-03-21T11:30:00;5.07;;;3.80;;
62711;SDS011;48772;55.586;37.730;2023-03-21T11:32:36;9.40;;;5.43;;
62711;SDS011;48772;55.586;37.730;2023-03-21T11:35:17;6.00;;;3.65;;
62711;SDS011;48772;55.586;37.730;2023-03-21T11:37:48;5.93;;;3.15;;
62711;SDS011;48772;55.586;37.730;2023-03-21T11:42:46;5.03;;;3.35;;
62711;SDS011;48772;55.586;37.730;2023-03-21T11:47:47;3.42;;;2.70;;
62711;SDS011;48772;55.586;37.730;2023-03-21T11:52:52;6.57;;;3.40;;
62711;SDS011;48772;55.586;37.730;2023-03-21T11:55:31;4.88;;;3.03;;
62711;SDS011;48772;55.586;37.730;2023-03-21T12:06:52;4.10;;;2.70;;
62711;SDS011;48772;55.586;37.730;2023-03-21T12:09:32;6.90;;;2.80;;
62711;SDS011;48772;55.586;37.730;2023-03-21T12:26:07;3.58;;;2.05;;
62711;SDS011;48772;55.586;37.730;2023-03-21T12:32:17;4.30;;;2.28;;
62711;SDS011;48772;55.586;37.730;2023-03-21T12:37:59;6.53;;;2.13;;
62711;SDS011;48772;55.586;37.730;2023-03-21T12:46:03;4.90;;;2.20;;
62711;SDS011;48772;55.586;37.730;2023-03-21T12:48:56;2.63;;;2.10;;
62711;SDS011;48772;55.586;37.730;2023-03-21T12:51:28;2.10;;;1.75;;
62711;SDS011;48772;55.586;37.730;2023-03-21T12:56:58;3.47;;;2.42;;
62711;SDS011;48772;55.586;37.730;2023-03-21T12:59:36;3.08;;;2.10;;
62711;SDS011;48772;55.586;37.730;2023-03-21T13:02:21;3.35;;;2.35;;
62711;SDS011;48772;55.586;37.730;2023-03-21T13:05:09;2.13;;;1.90;;
62711;SDS011;48772;55.586;37.730;2023-03-21T13:07:50;2.50;;;2.03;;
62711;SDS011;48772;55.586;37.730;2023-03-21T13:10:28;5.45;;;2.00;;
62711;SDS011;48772;55.586;37.730;2023-03-21T13:21:26;3.38;;;1.98;;
62711;SDS011;48772;55.586;37.730;2023-03-21T13:27:06;2.50;;;2.08;;
62711;SDS011;48772;55.586;37.730;2023-03-21T13:29:58;3.53;;;1.77;;
62711;SDS011;48772;55.586;37.730;2023-03-21T13:32:34;2.65;;;2.22;;
62711;SDS011;48772;55.586;37.730;2023-03-21T13:35:17;5.10;;;2.03;;
62711;SDS011;48772;55.586;37.730;2023-03-21T13:37:51;3.92;;;2.17;;
62711;SDS011;48772;55.586;37.730;2023-03-21T13:40:25;3.47;;;2.20;;
62711;SDS011;48772;55.586;37.730;2023-03-21T13:42:54;4.00;;;2.33;;
62711;SDS011;48772;55.586;37.730;2023-03-21T13:45:28;3.50;;;2.67;;
62711;SDS011;48772;55.586;37.730;2023-03-21T13:48:02;3.72;;;2.10;;
62711;SDS011;48772;55.586;37.730;2023-03-21T13:50:34;3.40;;;1.87;;
62711;SDS011;48772;55.586;37.730;2023-03-21T13:55:42;2.00;;;1.75;;
62711;SDS011;48772;55.586;37.730;2023-03-21T13:58:53;3.17;;;1.90;;
62711;SDS011;48772;55.586;37.730;2023-03-21T14:01:04;3.38;;;2.30;;
62711;SDS011;48772;55.586;37.730;2023-03-21T14:03:48;3.90;;;2.65;;
62711;SDS011;48772;55.586;37.730;2023-03-21T14:06:14;7.03;;;2.40;;
62711;SDS011;48772;55.586;37.730;2023-03-21T14:08:43;2.30;;;1.95;;
62711;SDS011;48772;55.586;37.730;2023-03-21T14:11:13;2.90;;;2.03;;
62711;SDS011;48772;55.586;37.730;2023-03-21T14:13:42;2.80;;;2.22;;
62711;SDS011;48772;55.586;37.730;2023-03-21T14:16:11;3.80;;;2.20;;
62711;SDS011;48772;55.586;37.730;2023-03-21T14:18:44;3.35;;;2.40;;
62711;SDS011;48772;55.586;37.730;2023-03-21T14:21:20;3.30;;;2.20;;
62711;SDS011;48772;55.586;37.730;2023-03-21T14:26:31;4.80;;;2.15;;
62711;SDS011;48772;55.586;37.730;2023-03-21T14:28:59;2.97;;;1.73;;
62711;SDS011;48772;55.586;37.730;2023-03-21T14:31:27;2.47;;;2.17;;
62711;SDS011;48772;55.586;37.730;2023-03-21T14:33:55;2.92;;;1.92;;
62711;SDS011;48772;55.586;37.730;2023-03-21T14:36:23;3.70;;;2.45;;
62711;SDS011;48772;55.586;37.730;2023-03-21T14:39:05;5.00;;;2.30;;
62711;SDS011;48772;55.586;37.730;2023-03-21T14:42:13;8.60;;;2.83;;
62711;SDS011;48772;55.586;37.730;2023-03-21T14:44:36;4.18;;;2.60;;
62711;SDS011;48772;55.586;37.730;2023-03-21T14:47:05;4.18;;;3.08;;
62711;SDS011;48772;55.586;37.730;2023-03-21T14:49:40;9.25;;;3.40;;
62711;SDS011;48772;55.586;37.730;2023-03-21T14:52:12;8.02;;;3.78;;
62711;SDS011;48772;55.586;37.730;2023-03-21T14:54:43;15.68;;;4.20;;
62711;SDS011;48772;55.586;37.730;2023-03-21T14:57:12;7.32;;;4.03;;
62711;SDS011;48772;55.586;37.730;2023-03-21T14:59:43;5.32;;;3.17;;
62711;SDS011;48772;55.586;37.730;2023-03-21T15:02:24;8.23;;;3.50;;
62711;SDS011;48772;55.586;37.730;2023-03-21T15:04:55;6.25;;;3.90;;
62711;SDS011;48772;55.586;37.730;2023-03-21T15:07:25;6.80;;;4.22;;
62711;SDS011;48772;55.586;37.730;2023-03-21T15:10:00;5.35;;;3.05;;
62711;SDS011;48772;55.586;37.730;2023-03-21T15:12:30;4.07;;;2.78;;
62711;SDS011;48772;55.586;37.730;2023-03-21T15:14:56;9.95;;;3.15;;
62711;SDS011;48772;55.586;37.730;2023-03-21T15:17:24;4.82;;;2.80;;
62711;SDS011;48772;55.586;37.730;2023-03-21T15:19:51;6.70;;;3.40;;
62711;SDS011;48772;55.586;37.730;2023-03-21T15:22:19;6.22;;;2.85;;
62711;SDS011;48772;55.586;37.730;2023-03-21T15:25:04;4.78;;;3.00;;
62711;SDS011;48772;55.586;37.730;2023-03-21T15:27:34;5.25;;;2.35;;
62711;SDS011;48772;55.586;37.730;2023-03-21T15:30:05;5.40;;;3.00;;
62711;SDS011;48772;55.586;37.730;2023-03-21T15:32:32;4.82;;;2.80;;
62711;SDS011;48772;55.586;37.730;2023-03-21T15:35:05;7.20;;;3.22;;
62711;SDS011;48772;55.586;37.730;2023-03-21T15:37:37;7.45;;;4.03;;
62711;SDS011;48772;55.586;37.730;2023-03-21T15:40:08;8.60;;;3.80;;
62711;SDS011;48772;55.586;37.730;2023-03-21T15:42:45;5.28;;;3.42;;
62711;SDS011;48772;55.586;37.730;2023-03-21T15:45:21;12.13;;;4.47;;
62711;SDS011;48772;55.586;37.730;2023-03-21T15:48:00;8.00;;;3.15;;
62711;SDS011;48772;55.586;37.730;2023-03-21T15:50:36;7.80;;;3.38;;
62711;SDS011;48772;55.586;37.730;2023-03-21T15:53:05;6.88;;;3.20;;
62711;SDS011;48772;55.586;37.730;2023-03-21T15:55:44;4.90;;;3.00;;
62711;SDS011;48772;55.586;37.730;2023-03-21T15:58:15;3.60;;;2.40;;
62711;SDS011;48772;55.586;37.730;2023-03-21T16:00:48;5.70;;;2.67;;
62711;SDS011;48772;55.586;37.730;2023-03-21T16:03:23;8.73;;;3.70;;
62711;SDS011;48772;55.586;37.730;2023-03-21T16:08:46;5.93;;;3.33;;
62711;SDS011;48772;55.586;37.730;2023-03-21T16:11:27;10.75;;;4.00;;
62711;SDS011;48772;55.586;37.730;2023-03-21T16:14:01;5.93;;;3.33;;
62711;SDS011;48772;55.586;37.730;2023-03-21T16:16:28;7.88;;;3.92;;
62711;SDS011;48772;55.586;37.730;2023-03-21T16:18:55;5.82;;;2.78;;
62711;SDS011;48772;55.586;37.730;2023-03-21T16:21:24;4.18;;;2.75;;
62711;SDS011;48772;55.586;37.730;2023-03-21T16:23:52;7.15;;;3.67;;
62711;SDS011;48772;55.586;37.730;2023-03-21T16:26:21;6.05;;;3.55;;
62711;SDS011;48772;55.586;37.730;2023-03-21T16:28:48;9.18;;;3.78;;